createdAt,value
2023-01-29T00:01:56.904Z,-3.45
2023-01-29T00:04:24.478Z,-3.40
2023-01-29T00:06:51.553Z,-3.38
2023-01-29T00:09:19.096Z,-3.44
2023-01-29T00:11:46.233Z,-3.45
2023-01-29T00:14:13.793Z,-3.50
2023-01-29T00:16:41.147Z,-3.38
2023-01-29T00:19:09.533Z,-3.36
2023-01-29T00:21:37.360Z,-3.36
2023-01-29T00:24:04.772Z,-3.44
2023-01-29T00:26:32.248Z,-3.34
2023-01-29T00:29:00.777Z,-3.41
2023-01-29T00:31:28.374Z,-3.46
2023-01-29T00:34:01.401Z,-3.31
2023-01-29T00:36:32.811Z,-3.51
2023-01-29T00:39:18.114Z,-3.31
2023-01-29T00:42:06.082Z,-3.29
2023-01-29T00:45:00.736Z,-3.29
2023-01-29T00:47:40.133Z,-3.51
2023-01-29T00:50:12.278Z,-3.35
2023-01-29T00:52:41.441Z,-3.25
2023-01-29T00:55:11.070Z,-3.35
2023-01-29T00:57:39.141Z,-3.21
2023-01-29T01:00:12.599Z,-3.23
2023-01-29T01:02:58.443Z,-3.43
2023-01-29T01:05:27.387Z,-3.22
2023-01-29T01:10:37.961Z,-3.32
2023-01-29T01:13:08.438Z,-3.25
2023-01-29T01:15:48.257Z,-3.29
2023-01-29T01:18:17.062Z,-3.36
2023-01-29T01:20:46.397Z,-3.28
2023-01-29T01:23:14.631Z,-3.32
2023-01-29T01:25:42.872Z,-3.30
2023-01-29T01:28:11.637Z,-3.38
2023-01-29T01:30:39.222Z,-3.55
2023-01-29T01:36:45.035Z,-3.33
2023-01-29T01:39:19.503Z,-3.41
2023-01-29T01:41:57.298Z,-3.46
2023-01-29T01:44:53.695Z,-3.34
2023-01-29T01:47:29.576Z,-3.46
2023-01-29T01:50:04.139Z,-3.37
2023-01-29T01:52:43.103Z,-3.47
2023-01-29T01:55:23.831Z,-3.56
2023-01-29T01:58:07.030Z,-3.47
2023-01-29T02:00:52.397Z,-3.49
2023-01-29T02:07:03.138Z,-3.51
2023-01-29T02:12:32.574Z,-3.46
2023-01-29T02:15:04.723Z,-3.44
2023-01-29T02:17:34.295Z,-3.43
2023-01-29T02:20:20.976Z,-3.41
2023-01-29T02:23:27.615Z,-3.45
2023-01-29T02:26:18.313Z,-3.56
2023-01-29T02:29:23.218Z,-3.55
2023-01-29T02:32:15.114Z,-3.57
2023-01-29T02:35:20.040Z,-3.61
2023-01-29T02:37:59.508Z,-4.07
2023-01-29T02:40:36.412Z,-3.63
2023-01-29T02:52:51.014Z,-3.52
2023-01-29T02:55:43.285Z,-3.58
2023-01-29T02:58:25.669Z,-3.51
2023-01-29T03:00:56.613Z,-3.43
2023-01-29T03:03:37.128Z,-3.47
2023-01-29T03:06:22.828Z,-3.47
2023-01-29T03:12:33.950Z,-3.47
2023-01-29T03:15:36.041Z,-3.49
2023-01-29T03:22:02.052Z,-3.58
2023-01-29T03:25:18.361Z,-3.73
2023-01-29T03:28:21.720Z,-3.74
2023-01-29T03:31:13.686Z,-3.98
2023-01-29T03:34:39.216Z,-3.88
2023-01-29T03:37:13.974Z,-3.86
2023-01-29T03:39:41.906Z,-3.89
2023-01-29T03:42:23.035Z,-3.92
2023-01-29T03:45:19.547Z,-3.90
2023-01-29T03:51:22.334Z,-3.95
2023-01-29T03:53:58.677Z,-3.94
2023-01-29T03:57:16.234Z,-3.96
2023-01-29T03:59:45.432Z,-3.97
2023-01-29T04:02:51.362Z,-4.07
2023-01-29T04:05:22.956Z,-3.94
2023-01-29T04:08:12.284Z,-3.95
2023-01-29T04:11:02.002Z,-3.99
2023-01-29T04:13:58.861Z,-4.07
2023-01-29T04:16:35.068Z,-4.19
2023-01-29T04:19:22.260Z,-4.02
2023-01-29T04:22:19.596Z,-4.05
2023-01-29T04:24:49.641Z,-4.11
2023-01-29T04:27:55.390Z,-4.11
2023-01-29T04:30:53.354Z,-4.17
2023-01-29T04:43:41.746Z,-4.33
2023-01-29T04:46:14.382Z,-4.33
2023-01-29T04:49:06.480Z,-4.34
2023-01-29T04:51:51.734Z,-4.37
2023-01-29T04:54:46.658Z,-4.41
2023-01-29T04:57:36.317Z,-4.42
2023-01-29T05:00:18.559Z,-4.41
2023-01-29T05:02:49.988Z,-4.48
2023-01-29T05:05:39.477Z,-4.50
2023-01-29T05:08:07.626Z,-4.59
2023-01-29T05:10:35.826Z,-4.44
2023-01-29T05:13:11.126Z,-4.46
2023-01-29T05:16:28.785Z,-4.69
2023-01-29T05:18:58.057Z,-4.59
2023-01-29T05:21:27.673Z,-4.87
2023-01-29T05:24:22.088Z,-4.42
2023-01-29T05:27:09.830Z,-4.42
2023-01-29T05:29:37.216Z,-4.62
2023-01-29T05:32:04.255Z,-4.49
2023-01-29T05:34:31.345Z,-4.49
2023-01-29T05:37:01.006Z,-4.43
2023-01-29T05:39:29.169Z,-4.60
2023-01-29T05:41:58.049Z,-4.54
2023-01-29T05:44:25.359Z,-4.51
2023-01-29T05:47:00.808Z,-4.39
2023-01-29T05:50:03.959Z,-4.48
2023-01-29T05:52:30.929Z,-4.41
2023-01-29T05:54:57.999Z,-4.39
2023-01-29T05:57:25.125Z,-4.47
2023-01-29T05:59:52.304Z,-4.35
2023-01-29T06:02:19.309Z,-4.33
2023-01-29T06:04:46.399Z,-4.34
2023-01-29T06:07:13.621Z,-4.29
2023-01-29T06:09:40.665Z,-4.25
2023-01-29T06:12:15.816Z,-4.35
2023-01-29T06:14:43.613Z,-4.30
2023-01-29T06:17:10.650Z,-4.52
2023-01-29T06:19:37.745Z,-4.48
2023-01-29T06:22:04.961Z,-4.29
2023-01-29T06:24:33.339Z,-4.25
2023-01-29T06:27:00.672Z,-4.32
2023-01-29T06:29:28.365Z,-4.24
2023-01-29T06:31:55.620Z,-4.22
2023-01-29T06:34:23.003Z,-4.34
2023-01-29T06:36:50.109Z,-4.43
2023-01-29T06:39:17.113Z,-4.27
2023-01-29T06:41:45.720Z,-4.42
2023-01-29T06:44:12.969Z,-4.83
2023-01-29T06:46:40.129Z,-4.26
2023-01-29T06:49:07.277Z,-4.25
2023-01-29T06:51:34.339Z,-4.36
2023-01-29T06:54:01.596Z,-4.49
2023-01-29T06:56:28.818Z,-4.27
2023-01-29T06:58:56.146Z,-4.53
2023-01-29T07:01:35.082Z,-4.51
2023-01-29T07:04:04.441Z,-4.75
2023-01-29T07:06:37.917Z,-4.78
2023-01-29T07:09:05.336Z,-4.26
2023-01-29T07:11:34.971Z,-4.58
2023-01-29T07:14:08.957Z,-5.19
2023-01-29T07:16:48.167Z,-5.21
2023-01-29T07:19:15.710Z,-4.63
2023-01-29T07:21:42.906Z,-4.33
2023-01-29T07:24:10.809Z,-4.52
2023-01-29T07:26:37.875Z,-4.26
2023-01-29T07:29:05.466Z,-4.28
2023-01-29T07:31:32.491Z,-4.25
2023-01-29T07:33:59.890Z,-4.18
2023-01-29T07:36:29.756Z,-4.14
2023-01-29T07:38:57.087Z,-4.20
2023-01-29T07:41:24.140Z,-4.09
2023-01-29T07:47:05.021Z,-4.18
2023-01-29T07:49:32.059Z,-4.06
2023-01-29T07:51:59.070Z,-4.04
2023-01-29T07:54:27.045Z,-4.10
2023-01-29T07:56:57.238Z,-4.21
2023-01-29T07:59:24.265Z,-4.07
2023-01-29T08:02:04.566Z,-4.06
2023-01-29T08:04:31.527Z,-4.03
2023-01-29T08:06:58.493Z,-4.12
2023-01-29T08:09:25.830Z,-4.02
2023-01-29T08:11:52.856Z,-3.94
2023-01-29T08:14:20.004Z,-4.17
2023-01-29T08:16:47.645Z,-3.84
2023-01-29T08:19:14.810Z,-3.89
2023-01-29T08:21:42.007Z,-3.92
2023-01-29T08:24:09.190Z,-3.96
2023-01-29T08:26:36.188Z,-3.84
2023-01-29T08:29:03.293Z,-3.85
2023-01-29T08:31:30.742Z,-3.69
2023-01-29T08:33:58.962Z,-3.73
2023-01-29T08:36:26.055Z,-3.86
2023-01-29T08:38:53.059Z,-3.97
2023-01-29T08:41:20.253Z,-4.00
2023-01-29T08:43:47.520Z,-3.71
2023-01-29T08:46:14.515Z,-3.67
2023-01-29T08:48:41.515Z,-3.63
2023-01-29T08:51:09.364Z,-3.69
2023-01-29T08:53:36.437Z,-3.68
2023-01-29T08:56:04.023Z,-3.71
2023-01-29T08:58:31.090Z,-3.59
2023-01-29T09:01:06.594Z,-3.46
2023-01-29T09:03:33.757Z,-3.50
2023-01-29T09:06:00.876Z,-3.47
2023-01-29T09:08:28.361Z,-3.44
2023-01-29T09:10:55.308Z,-3.41
2023-01-29T09:13:22.371Z,-3.33
2023-01-29T09:15:49.538Z,-3.46
2023-01-29T09:18:16.692Z,-3.33
2023-01-29T09:20:43.757Z,-3.28
2023-01-29T09:23:11.520Z,-3.26
2023-01-29T09:25:38.507Z,-3.22
2023-01-29T09:28:06.409Z,-3.22
2023-01-29T09:30:34.862Z,-3.26
2023-01-29T09:33:02.025Z,-3.26
2023-01-29T09:35:29.092Z,-3.56
2023-01-29T09:37:56.396Z,-3.18
2023-01-29T09:40:29.794Z,-3.18
2023-01-29T09:43:04.740Z,-3.17
2023-01-29T09:45:31.980Z,-3.47
2023-01-29T09:48:02.486Z,-3.32
2023-01-29T09:50:40.257Z,-3.25
2023-01-29T09:53:19.116Z,-3.22
2023-01-29T09:55:52.598Z,-3.25
2023-01-29T09:58:29.250Z,-3.21
2023-01-29T10:01:24.348Z,-3.19
2023-01-29T10:04:08.372Z,-3.15
2023-01-29T10:06:41.262Z,-3.16
2023-01-29T10:09:47.036Z,-3.16
2023-01-29T10:12:22.868Z,-3.10
2023-01-29T10:15:08.857Z,-3.10
2023-01-29T10:18:05.331Z,-3.17
2023-01-29T10:21:06.479Z,-3.17
2023-01-29T10:23:54.894Z,-3.49
2023-01-29T10:26:24.975Z,-3.17
2023-01-29T10:28:55.379Z,-3.17
2023-01-29T10:31:29.492Z,-3.10
2023-01-29T10:34:14.989Z,-3.12
2023-01-29T10:36:45.314Z,-3.25
2023-01-29T10:39:15.227Z,-3.14
2023-01-29T10:42:00.985Z,-3.14
2023-01-29T10:44:48.987Z,-3.11
2023-01-29T10:47:52.876Z,-3.17
2023-01-29T10:50:59.413Z,-3.16
2023-01-29T10:53:46.786Z,-3.21
2023-01-29T10:56:23.660Z,-3.19
2023-01-29T10:59:05.540Z,-3.18
2023-01-29T11:01:32.796Z,-3.17
2023-01-29T11:04:03.481Z,-3.08
2023-01-29T11:06:33.365Z,-3.13
2023-01-29T11:09:15.209Z,-3.05
2023-01-29T11:11:50.930Z,-3.09
2023-01-29T11:14:38.176Z,-2.98
2023-01-29T11:17:05.191Z,-3.05
2023-01-29T11:19:45.360Z,-3.12
2023-01-29T11:22:20.955Z,-3.07
2023-01-29T11:25:10.412Z,-3.06
2023-01-29T11:27:48.073Z,-3.12
2023-01-29T11:39:44.600Z,-3.29
2023-01-29T11:46:11.919Z,-3.13
2023-01-29T11:52:21.039Z,-3.12
2023-01-29T11:55:05.417Z,-3.11
2023-01-29T11:57:41.287Z,-3.17
2023-01-29T12:00:25.659Z,-3.13
2023-01-29T12:03:15.032Z,-3.31
2023-01-29T12:05:57.986Z,-3.07
2023-01-29T12:08:25.563Z,-3.29
2023-01-29T12:11:07.688Z,-3.15
2023-01-29T12:13:36.236Z,-3.15
2023-01-29T12:16:34.811Z,-3.13
2023-01-29T12:22:29.734Z,-3.22
2023-01-29T12:25:07.503Z,-3.30
2023-01-29T12:28:05.634Z,-3.21
2023-01-29T12:30:48.670Z,-3.16
2023-01-29T12:33:44.313Z,-3.15
2023-01-29T12:36:22.364Z,-3.11
2023-01-29T12:38:49.514Z,-3.22
2023-01-29T12:41:31.469Z,-3.12
2023-01-29T12:44:05.851Z,-3.18
2023-01-29T12:46:43.937Z,-3.20
2023-01-29T12:49:18.573Z,-3.21
2023-01-29T12:52:22.059Z,-3.20
2023-01-29T12:55:38.401Z,-3.21
2023-01-29T12:58:15.099Z,-3.32
2023-01-29T13:00:49.266Z,-3.43
2023-01-29T13:03:25.644Z,-3.19
2023-01-29T13:06:12.133Z,-3.25
2023-01-29T13:08:51.589Z,-3.23
2023-01-29T13:11:45.697Z,-3.23
2023-01-29T13:14:40.969Z,-3.33
2023-01-29T13:17:36.918Z,-3.39
2023-01-29T13:20:30.342Z,-3.27
2023-01-29T13:23:04.880Z,-3.26
2023-01-29T13:25:31.951Z,-3.49
2023-01-29T13:27:59.098Z,-3.46
2023-01-29T13:30:32.201Z,-3.31
2023-01-29T13:33:10.627Z,-3.32
2023-01-29T13:35:45.198Z,-3.35
2023-01-29T13:38:25.658Z,-3.45
2023-01-29T13:40:56.744Z,-3.47
2023-01-29T13:43:24.548Z,-3.37
2023-01-29T13:45:53.717Z,-3.43
2023-01-29T13:48:32.648Z,-3.51
2023-01-29T13:51:04.883Z,-3.51
2023-01-29T13:53:42.191Z,-3.39
2023-01-29T13:56:43.251Z,-3.33
2023-01-29T13:59:23.817Z,-3.36
2023-01-29T14:01:51.027Z,-3.37
2023-01-29T14:04:25.964Z,-3.36
2023-01-29T14:06:56.576Z,-3.54
2023-01-29T14:09:43.711Z,-3.38
2023-01-29T14:12:23.026Z,-3.41
2023-01-29T14:14:54.887Z,-3.38
2023-01-29T14:17:21.998Z,-3.53
2023-01-29T14:19:50.619Z,-3.43
2023-01-29T14:22:27.842Z,-3.39
2023-01-29T14:25:00.288Z,-3.56
2023-01-29T14:27:27.934Z,-3.42
2023-01-29T14:30:03.945Z,-3.49
2023-01-29T14:32:31.798Z,-3.45
2023-01-29T14:35:04.042Z,-3.47
2023-01-29T14:37:40.602Z,-3.49
2023-01-29T14:40:34.543Z,-3.49
2023-01-29T14:43:20.000Z,-3.55
2023-01-29T14:45:48.869Z,-3.61
2023-01-29T14:48:34.464Z,-3.52
2023-01-29T14:51:11.087Z,-3.56
2023-01-29T14:53:48.998Z,-3.53
2023-01-29T14:56:33.900Z,-3.56
2023-01-29T14:59:24.106Z,-3.55
2023-01-29T15:01:56.596Z,-3.55
2023-01-29T15:04:44.637Z,-3.79
2023-01-29T15:07:11.915Z,-3.59
2023-01-29T15:09:55.656Z,-3.61
2023-01-29T15:12:39.683Z,-3.56
2023-01-29T15:15:27.269Z,-3.57
2023-01-29T15:18:02.054Z,-4.44
2023-01-29T15:20:33.621Z,-3.67
2023-01-29T15:23:03.547Z,-3.57
2023-01-29T15:25:49.779Z,-3.64
2023-01-29T15:28:17.528Z,-3.68
2023-01-29T15:30:45.212Z,-3.55
2023-01-29T15:33:14.960Z,-3.56
2023-01-29T15:35:42.938Z,-3.68
2023-01-29T15:38:22.863Z,-3.51
2023-01-29T15:41:00.549Z,-3.55
2023-01-29T15:43:37.053Z,-3.62
2023-01-29T15:46:12.775Z,-3.74
2023-01-29T15:48:42.941Z,-4.18
2023-01-29T15:51:16.177Z,-3.61
2023-01-29T15:53:50.268Z,-3.75
2023-01-29T15:56:21.947Z,-3.59
2023-01-29T15:58:51.276Z,-3.83
2023-01-29T16:01:19.017Z,-3.76
2023-01-29T16:03:49.369Z,-3.60
2023-01-29T16:06:17.142Z,-3.64
2023-01-29T16:08:48.973Z,-3.90
2023-01-29T16:11:17.445Z,-3.68
2023-01-29T16:13:49.342Z,-3.69
2023-01-29T16:16:16.566Z,-3.78
2023-01-29T16:18:58.956Z,-3.73
2023-01-29T16:21:41.513Z,-3.70
2023-01-29T16:24:12.046Z,-3.89
2023-01-29T16:26:48.249Z,-3.73
2023-01-29T16:29:19.203Z,-3.69
2023-01-29T16:31:49.801Z,-3.68
2023-01-29T16:37:39.106Z,-3.68
2023-01-29T16:40:37.735Z,-3.72
2023-01-29T16:43:20.665Z,-3.70
2023-01-29T16:46:24.712Z,-3.74
2023-01-29T16:48:52.897Z,-3.82
2023-01-29T16:51:37.838Z,-3.70
2023-01-29T16:54:22.354Z,-3.71
2023-01-29T16:56:56.107Z,-3.72
2023-01-29T16:59:38.292Z,-3.75
2023-01-29T17:02:17.589Z,-3.73
2023-01-29T17:04:59.790Z,-3.73
2023-01-29T17:07:27.841Z,-3.74
2023-01-29T17:09:58.974Z,-3.71
2023-01-29T17:12:27.654Z,-3.70
2023-01-29T17:15:42.569Z,-3.72
2023-01-29T17:19:09.132Z,-3.71
2023-01-29T17:21:36.099Z,-3.87
2023-01-29T17:24:03.144Z,-3.85
2023-01-29T17:26:31.646Z,-4.28
2023-01-29T17:28:58.785Z,-3.96
2023-01-29T17:31:25.924Z,-3.81
2023-01-29T17:33:53.544Z,-3.74
2023-01-29T17:36:20.848Z,-3.75
2023-01-29T17:38:47.885Z,-4.09
2023-01-29T17:41:25.200Z,-3.90
2023-01-29T17:43:53.268Z,-3.82
2023-01-29T17:46:21.061Z,-3.80
2023-01-29T17:48:52.545Z,-3.82
2023-01-29T17:57:29.444Z,-3.80
2023-01-29T17:59:59.483Z,-3.85
2023-01-29T18:02:29.580Z,-3.82
2023-01-29T18:05:08.636Z,-3.81
2023-01-29T18:10:17.909Z,-3.78
2023-01-29T18:12:46.408Z,-3.80
2023-01-29T18:15:13.633Z,-3.83
2023-01-29T18:17:41.832Z,-3.81
2023-01-29T18:20:22.196Z,-3.78
2023-01-29T18:22:50.653Z,-3.82
2023-01-29T18:25:18.465Z,-3.81
2023-01-29T18:27:46.821Z,-3.89
2023-01-29T18:30:14.504Z,-3.82
2023-01-29T18:32:41.924Z,-3.87
2023-01-29T18:48:49.709Z,-3.81
2023-01-29T18:51:17.191Z,-3.83
2023-01-29T19:09:50.990Z,-4.31
2023-01-29T19:15:15.034Z,-3.84
2023-01-29T19:17:59.535Z,-3.85
2023-01-29T19:20:37.652Z,-3.86
2023-01-29T19:23:26.094Z,-3.75
2023-01-29T19:26:03.093Z,-3.82
2023-01-29T19:28:43.507Z,-3.91
2023-01-29T19:31:11.601Z,-3.82
2023-01-29T19:33:39.460Z,-3.95
2023-01-29T19:36:06.965Z,-3.95
2023-01-29T19:38:38.067Z,-3.80
2023-01-29T19:41:05.798Z,-3.96
2023-01-29T19:43:33.084Z,-3.95
2023-01-29T19:46:01.920Z,-3.82
2023-01-29T19:48:29.147Z,-3.86
2023-01-29T19:51:10.489Z,-4.02
2023-01-29T19:53:40.160Z,-3.84
2023-01-29T20:09:10.001Z,-3.88
2023-01-29T20:11:37.009Z,-3.88
2023-01-29T20:14:04.051Z,-3.87
2023-01-29T20:16:31.147Z,-3.86
2023-01-29T20:19:14.234Z,-3.91
2023-01-29T20:34:15.260Z,-3.87
2023-01-29T20:37:09.023Z,-3.94
2023-01-29T20:42:41.191Z,-4.11
2023-01-29T20:48:54.504Z,-3.94
2023-01-29T20:51:26.870Z,-3.88
2023-01-29T20:53:56.988Z,-3.85
2023-01-29T20:56:37.075Z,-4.02
2023-01-29T20:59:12.363Z,-4.29
2023-01-29T21:01:40.871Z,-3.94
2023-01-29T21:04:08.702Z,-4.02
2023-01-29T21:06:41.297Z,-4.13
2023-01-29T21:09:18.034Z,-4.05
2023-01-29T21:21:47.900Z,-3.80
2023-01-29T21:31:06.331Z,-3.83
2023-01-29T21:33:38.035Z,-3.96
2023-01-29T21:36:05.680Z,-4.02
2023-01-29T21:38:33.202Z,-3.96
2023-01-29T21:41:02.048Z,-3.80
2023-01-29T21:43:29.407Z,-3.85
2023-01-29T21:45:58.636Z,-3.88
2023-01-29T21:58:42.748Z,-4.16
2023-01-29T22:01:18.259Z,-3.95
2023-01-29T22:07:38.485Z,-3.96
2023-01-29T22:10:06.009Z,-4.01
2023-01-29T22:27:48.572Z,-3.90
2023-01-29T22:30:15.907Z,-3.89
2023-01-29T22:32:44.761Z,-3.96
2023-01-29T22:35:11.794Z,-4.02
2023-01-29T22:37:38.856Z,-4.06
2023-01-29T22:40:06.673Z,-3.94
2023-01-29T22:42:51.675Z,-3.89
2023-01-29T22:49:24.394Z,-4.01
2023-01-29T22:56:31.655Z,-4.04
2023-01-29T23:02:59.671Z,-4.02
2023-01-29T23:05:26.795Z,-4.01
2023-01-29T23:07:53.931Z,-4.04
2023-01-29T23:10:21.449Z,-4.03
2023-01-29T23:12:49.988Z,-4.43
2023-01-29T23:15:20.950Z,-4.10
2023-01-29T23:33:55.436Z,-4.34
2023-01-29T23:39:58.587Z,-4.21
2023-01-29T23:42:55.736Z,-4.29
2023-01-29T23:46:14.067Z,-4.25
2023-01-29T23:48:48.545Z,-4.25
2023-01-29T23:51:17.245Z,-4.30
2023-01-29T23:53:58.703Z,-4.50
2023-01-29T23:56:26.439Z,-4.42
2023-01-29T23:58:55.165Z,-4.53
